createdAt,value
2019-05-03T00:01:15.866Z,17.10
2019-05-03T00:03:46.484Z,16.43
2019-05-03T00:06:17.145Z,18.13
2019-05-03T00:08:47.778Z,15.90
2019-05-03T00:11:17.912Z,16.30
2019-05-03T00:13:48.350Z,16.40
2019-05-03T00:16:24.605Z,16.87
2019-05-03T00:18:54.744Z,16.60
2019-05-03T00:21:24.676Z,16.13
2019-05-03T00:23:55.161Z,17.40
2019-05-03T00:26:25.301Z,18.13
2019-05-03T00:28:55.758Z,17.63
2019-05-03T00:31:26.501Z,14.07
2019-05-03T00:34:02.258Z,15.30
2019-05-03T00:36:41.844Z,18.50
2019-05-03T00:39:24.095Z,17.17
2019-05-03T00:41:54.841Z,17.10
2019-05-03T00:44:25.490Z,16.40
2019-05-03T00:46:56.233Z,18.47
2019-05-03T00:49:26.874Z,16.47
2019-05-03T00:51:57.042Z,17.30
2019-05-03T00:54:27.577Z,15.83
2019-05-03T00:56:58.317Z,16.30
2019-05-03T00:59:28.953Z,15.97
2019-05-03T01:01:59.673Z,14.80
2019-05-03T01:04:31.662Z,15.80
2019-05-03T01:07:02.338Z,16.90
2019-05-03T01:09:33.953Z,17.20
2019-05-03T01:12:04.918Z,17.70
2019-05-03T01:14:37.155Z,15.33
2019-05-03T01:17:07.888Z,17.57
2019-05-03T01:19:38.598Z,18.57
2019-05-03T01:22:09.333Z,17.53
2019-05-03T01:24:39.969Z,18.33
2019-05-03T01:27:12.350Z,17.00
2019-05-03T01:29:43.093Z,17.70
2019-05-03T01:32:13.823Z,18.80
2019-05-03T01:34:44.525Z,16.67
2019-05-03T01:37:15.193Z,17.93
2019-05-03T01:39:46.792Z,18.27
2019-05-03T01:42:17.522Z,18.40
2019-05-03T01:44:48.151Z,16.60
2019-05-03T01:47:25.412Z,18.60
2019-05-03T01:50:09.511Z,16.27
2019-05-03T01:52:41.975Z,17.83
2019-05-03T01:55:15.833Z,17.43
2019-05-03T01:57:45.999Z,18.07
2019-05-03T02:00:22.473Z,20.00
2019-05-03T02:03:07.681Z,17.30
2019-05-03T02:05:47.099Z,17.40
2019-05-03T02:08:17.833Z,18.40
2019-05-03T02:10:48.538Z,17.33
2019-05-03T02:13:19.196Z,18.37
2019-05-03T02:15:49.906Z,17.40
2019-05-03T02:18:22.358Z,19.30
2019-05-03T02:20:53.230Z,18.93
2019-05-03T02:23:23.386Z,19.27
2019-05-03T02:25:56.795Z,19.90
2019-05-03T02:28:25.764Z,18.40
2019-05-03T02:30:56.214Z,19.70
2019-05-03T02:33:26.877Z,20.30
2019-05-03T02:35:57.602Z,17.90
2019-05-03T02:38:28.864Z,16.93
2019-05-03T02:41:02.685Z,17.90
2019-05-03T02:43:36.588Z,17.40
2019-05-03T02:46:28.741Z,15.40
2019-05-03T02:49:15.406Z,18.13
2019-05-03T02:51:46.267Z,17.93
2019-05-03T02:54:17.134Z,16.90
2019-05-03T02:56:47.886Z,16.83
2019-05-03T02:59:18.591Z,17.23
2019-05-03T03:01:49.875Z,17.30
2019-05-03T03:04:20.944Z,17.17
2019-05-03T03:06:55.659Z,17.80
2019-05-03T03:09:27.864Z,17.47
2019-05-03T03:12:02.191Z,17.27
2019-05-03T03:14:36.265Z,16.80
2019-05-03T03:17:10.755Z,16.17
2019-05-03T03:19:46.165Z,18.13
2019-05-03T03:22:20.809Z,19.13
2019-05-03T03:24:55.898Z,18.00
2019-05-03T03:27:31.937Z,17.33
2019-05-03T03:30:29.050Z,16.73
2019-05-03T03:33:01.843Z,18.17
2019-05-03T03:35:38.064Z,16.93
2019-05-03T03:38:07.259Z,17.70
2019-05-03T03:40:39.849Z,18.97
2019-05-03T03:43:15.753Z,19.70
2019-05-03T03:45:47.686Z,17.50
2019-05-03T03:48:20.740Z,18.50
2019-05-03T03:50:56.091Z,18.77
2019-05-03T03:53:29.064Z,16.50
2019-05-03T03:56:05.574Z,16.70
2019-05-03T03:58:46.459Z,18.53
2019-05-03T04:01:21.136Z,18.37
2019-05-03T04:03:56.129Z,18.03
2019-05-03T04:06:46.380Z,18.10
2019-05-03T04:09:18.389Z,18.23
2019-05-03T04:11:49.422Z,19.10
2019-05-03T04:14:25.597Z,18.77
2019-05-03T04:17:18.727Z,17.07
2019-05-03T04:19:51.770Z,17.77
2019-05-03T04:22:25.300Z,16.90
2019-05-03T04:24:55.471Z,18.87
2019-05-03T04:27:27.588Z,17.60
2019-05-03T04:29:58.650Z,18.53
2019-05-03T04:32:29.467Z,20.10
2019-05-03T04:34:59.658Z,18.97
2019-05-03T04:37:29.614Z,17.67
2019-05-03T04:40:00.445Z,18.50
2019-05-03T04:42:31.514Z,19.37
2019-05-03T04:45:02.287Z,19.00
2019-05-03T04:47:37.407Z,17.73
2019-05-03T04:50:08.657Z,16.93
2019-05-03T04:52:39.345Z,19.27
2019-05-03T04:55:10.159Z,18.00
2019-05-03T04:57:45.751Z,17.37
2019-05-03T05:00:15.811Z,19.17
2019-05-03T05:02:46.052Z,18.60
2019-05-03T05:05:17.465Z,17.00
2019-05-03T05:07:48.229Z,18.20
2019-05-03T05:10:18.961Z,17.53
2019-05-03T05:12:49.718Z,17.30
2019-05-03T05:15:20.787Z,18.40
2019-05-03T05:18:10.231Z,17.23
2019-05-03T05:20:45.543Z,17.50
2019-05-03T05:23:16.216Z,17.30
2019-05-03T05:26:01.218Z,17.97
2019-05-03T05:28:44.783Z,17.97
2019-05-03T05:31:15.693Z,15.43
2019-05-03T05:33:46.524Z,16.80
2019-05-03T05:36:17.265Z,17.53
2019-05-03T05:38:47.343Z,16.93
2019-05-03T05:41:18.138Z,16.17
2019-05-03T05:43:48.894Z,15.60
2019-05-03T05:46:21.785Z,17.10
2019-05-03T05:48:52.870Z,15.47
2019-05-03T05:51:41.322Z,16.53
2019-05-03T05:54:14.368Z,15.97
2019-05-03T05:56:54.837Z,16.43
2019-05-03T05:59:45.332Z,15.40
2019-05-03T06:02:36.808Z,16.07
2019-05-03T06:33:46.601Z,17.27
2019-05-03T06:36:18.201Z,14.30
2019-05-03T06:38:48.868Z,13.20
2019-05-03T06:41:19.557Z,14.17
2019-05-03T06:43:50.217Z,15.03
2019-05-03T06:46:23.489Z,14.83
2019-05-03T06:48:54.908Z,14.50
2019-05-03T06:51:25.525Z,13.80
2019-05-03T06:53:55.587Z,13.00
2019-05-03T06:56:29.075Z,12.10
2019-05-03T06:58:57.752Z,13.80
2019-05-03T07:01:34.509Z,14.77
2019-05-03T07:04:10.052Z,15.13
2019-05-03T07:06:57.516Z,15.83
2019-05-03T07:09:41.450Z,13.53
2019-05-03T07:12:12.104Z,13.97
2019-05-03T07:14:44.876Z,14.50
2019-05-03T07:17:14.636Z,14.53
2019-05-03T07:19:45.925Z,15.10
2019-05-03T07:22:16.733Z,14.33
2019-05-03T07:24:47.429Z,14.03
2019-05-03T07:27:18.064Z,11.10
2019-05-03T07:29:48.762Z,11.57
2019-05-03T07:32:19.445Z,10.13
2019-05-03T07:34:50.091Z,11.80
2019-05-03T07:37:20.794Z,10.80
2019-05-03T07:39:50.920Z,11.40
2019-05-03T07:42:21.427Z,10.87
2019-05-03T07:44:52.132Z,10.27
2019-05-03T07:47:24.416Z,10.77
2019-05-03T07:49:55.108Z,9.63
2019-05-03T07:52:25.934Z,10.30
2019-05-03T07:54:56.690Z,8.53
2019-05-03T07:57:32.392Z,8.40
2019-05-03T08:00:04.961Z,8.23
2019-05-03T08:02:36.068Z,8.40
2019-05-03T08:05:07.008Z,8.60
2019-05-03T08:07:37.545Z,9.53
2019-05-03T08:10:08.991Z,9.73
2019-05-03T08:12:39.685Z,8.97
2019-05-03T08:15:10.438Z,8.70
2019-05-03T08:17:42.226Z,8.50
2019-05-03T08:20:14.383Z,9.30
2019-05-03T08:22:45.125Z,8.47
2019-05-03T08:25:15.169Z,7.40
2019-05-03T08:27:45.673Z,7.70
2019-05-03T08:30:22.460Z,8.90
2019-05-03T08:33:01.094Z,9.00
2019-05-03T08:35:37.204Z,8.40
2019-05-03T08:38:07.833Z,9.17
2019-05-03T08:40:48.510Z,8.47
2019-05-03T08:43:19.205Z,9.77
2019-05-03T08:45:49.325Z,9.17
2019-05-03T08:48:19.838Z,9.60
2019-05-03T08:50:50.581Z,8.50
2019-05-03T08:53:21.227Z,8.53
2019-05-03T08:55:55.229Z,9.37
2019-05-03T08:58:25.795Z,8.37
2019-05-03T09:00:56.548Z,9.40
2019-05-03T09:03:27.249Z,10.07
2019-05-03T09:05:57.971Z,8.50
2019-05-03T09:08:28.674Z,8.87
2019-05-03T09:11:09.335Z,8.13
2019-05-03T09:14:04.604Z,8.13
2019-05-03T09:16:35.549Z,8.17
2019-05-03T09:19:06.314Z,7.73
2019-05-03T09:21:37.024Z,8.00
2019-05-03T09:24:08.123Z,7.90
2019-05-03T09:26:39.032Z,7.67
2019-05-03T09:29:09.739Z,7.67
2019-05-03T09:31:39.849Z,8.30
2019-05-03T09:34:10.281Z,7.53
2019-05-03T09:36:40.989Z,7.60
2019-05-03T09:39:11.622Z,7.67
2019-05-03T09:41:42.376Z,7.40
2019-05-03T09:44:14.980Z,7.10
2019-05-03T09:46:45.417Z,7.13
2019-05-03T09:49:16.658Z,7.40
2019-05-03T09:51:47.334Z,7.87
2019-05-03T09:54:26.305Z,7.40
2019-05-03T09:56:58.605Z,7.27
2019-05-03T09:59:29.941Z,6.80
2019-05-03T10:02:01.915Z,6.93
2019-05-03T10:04:33.573Z,7.83
2019-05-03T10:07:04.281Z,6.67
2019-05-03T10:09:35.451Z,8.03
2019-05-03T10:12:09.584Z,7.07
2019-05-03T10:14:40.211Z,7.53
2019-05-03T10:17:25.059Z,7.67
2019-05-03T10:19:55.072Z,8.03
2019-05-03T10:22:28.309Z,7.93
2019-05-03T10:24:59.058Z,7.33
2019-05-03T10:27:32.345Z,7.37
2019-05-03T10:30:10.470Z,7.57
2019-05-03T10:32:41.303Z,7.50
2019-05-03T10:35:14.993Z,7.23
2019-05-03T10:37:45.409Z,8.07
2019-05-03T10:40:19.769Z,7.80
2019-05-03T10:42:50.494Z,7.00
2019-05-03T10:45:21.191Z,6.50
2019-05-03T10:47:51.929Z,5.60
2019-05-03T10:50:22.609Z,4.57
2019-05-03T10:53:01.967Z,4.50
2019-05-03T10:55:32.590Z,4.73
2019-05-03T10:58:15.991Z,5.30
2019-05-03T11:00:52.985Z,4.53
2019-05-03T11:03:20.346Z,4.67
2019-05-03T11:05:50.443Z,5.17
2019-05-03T11:08:20.904Z,4.47
2019-05-03T11:10:51.015Z,4.03
2019-05-03T11:13:20.935Z,4.20
2019-05-03T11:15:50.849Z,3.67
2019-05-03T11:18:21.326Z,3.50
2019-05-03T11:20:52.026Z,3.20
2019-05-03T11:23:22.738Z,2.70
2019-05-03T11:25:55.388Z,3.20
2019-05-03T11:28:26.193Z,3.60
2019-05-03T11:31:02.251Z,3.60
2019-05-03T11:33:36.917Z,4.10
2019-05-03T11:36:14.965Z,4.07
2019-05-03T11:38:46.416Z,4.17
2019-05-03T11:41:29.374Z,3.97
2019-05-03T11:43:49.216Z,3.73
2019-05-03T11:46:19.848Z,3.67
2019-05-03T11:48:49.974Z,3.30
2019-05-03T11:51:19.890Z,3.50
2019-05-03T11:53:49.824Z,3.67
2019-05-03T11:56:19.709Z,3.03
2019-05-03T11:58:49.604Z,4.47
2019-05-03T12:01:25.635Z,3.90
2019-05-03T12:03:59.950Z,3.63
2019-05-03T12:06:29.793Z,4.03
2019-05-03T12:08:59.653Z,3.90
2019-05-03T12:11:31.671Z,3.87
2019-05-03T12:14:11.424Z,3.83
2019-05-03T12:17:17.128Z,4.10
2019-05-03T12:19:22.596Z,4.50
2019-05-03T12:21:50.520Z,4.23
2019-05-03T12:24:21.579Z,4.10
2019-05-03T12:26:55.669Z,4.10
2019-05-03T12:29:25.681Z,4.33
2019-05-03T12:31:56.366Z,4.43
2019-05-03T12:34:26.482Z,3.90
2019-05-03T12:36:56.561Z,4.17
2019-05-03T12:39:30.275Z,3.87
2019-05-03T12:41:58.615Z,3.93
2019-05-03T12:44:28.745Z,3.47
2019-05-03T12:46:58.689Z,4.10
2019-05-03T12:49:29.212Z,4.30
2019-05-03T12:52:10.395Z,87.73
2019-05-03T12:54:40.763Z,5.27
2019-05-03T12:57:10.868Z,3.97
2019-05-03T13:00:08.896Z,3.70
2019-05-03T13:02:51.780Z,3.93
2019-05-03T13:05:22.330Z,3.77
2019-05-03T13:08:10.705Z,4.30
2019-05-03T13:10:40.837Z,4.63
2019-05-03T13:13:11.716Z,4.20
2019-05-03T13:15:41.645Z,4.00
2019-05-03T13:18:11.572Z,3.93
2019-05-03T13:20:41.428Z,4.63
2019-05-03T13:23:12.902Z,3.70
2019-05-03T13:25:44.760Z,4.20
2019-05-03T13:28:15.546Z,3.87
2019-05-03T13:30:45.673Z,3.57
2019-05-03T13:33:15.605Z,3.80
2019-05-03T13:35:45.517Z,3.20
2019-05-03T13:38:15.422Z,3.40
2019-05-03T13:40:45.510Z,3.30
2019-05-03T13:43:16.030Z,3.03
2019-05-03T13:45:46.149Z,2.90
2019-05-03T13:48:21.042Z,3.00
2019-05-03T13:50:47.547Z,3.17
2019-05-03T13:53:18.040Z,2.73
2019-05-03T13:55:48.093Z,3.03
2019-05-03T13:58:18.593Z,2.87
2019-05-03T14:00:51.091Z,2.80
2019-05-03T14:03:20.249Z,2.87
2019-05-03T14:05:50.100Z,2.60
2019-05-03T14:08:20.528Z,3.03
2019-05-03T14:10:50.650Z,2.60
2019-05-03T14:13:20.557Z,3.57
2019-05-03T14:15:50.433Z,2.87
2019-05-03T14:18:20.911Z,3.00
2019-05-03T14:21:10.112Z,2.93
2019-05-03T14:23:58.293Z,2.90
2019-05-03T14:26:29.005Z,2.50
2019-05-03T14:28:59.166Z,2.53
2019-05-03T14:31:29.029Z,2.57
2019-05-03T14:33:58.953Z,2.50
2019-05-03T14:36:28.884Z,2.50
2019-05-03T14:38:59.373Z,1.90
2019-05-03T14:41:29.492Z,2.00
2019-05-03T14:43:59.356Z,1.40
2019-05-03T14:46:33.024Z,1.40
2019-05-03T14:49:00.803Z,1.40
2019-05-03T14:51:30.655Z,1.70
2019-05-03T14:54:00.696Z,1.63
2019-05-03T14:56:52.966Z,2.00
2019-05-03T14:59:51.634Z,2.13
2019-05-03T15:02:40.199Z,2.40
2019-05-03T15:04:59.255Z,1.90
2019-05-03T15:07:29.759Z,2.10
2019-05-03T15:09:59.857Z,2.00
2019-05-03T15:12:29.717Z,2.40
2019-05-03T15:14:59.558Z,2.30
2019-05-03T15:17:30.009Z,2.43
2019-05-03T15:20:00.045Z,2.30
2019-05-03T15:22:29.989Z,3.07
2019-05-03T15:24:59.812Z,2.37
2019-05-03T15:27:30.274Z,2.57
2019-05-03T15:30:00.429Z,2.77
2019-05-03T15:32:30.332Z,3.00
2019-05-03T15:35:00.246Z,2.30
2019-05-03T15:37:30.168Z,2.10
2019-05-03T15:40:00.657Z,2.20
2019-05-03T15:42:30.898Z,2.30
2019-05-03T15:45:34.369Z,2.60
2019-05-03T15:48:25.897Z,2.50
2019-05-03T15:50:55.966Z,2.40
2019-05-03T15:53:25.889Z,2.40
2019-05-03T15:55:56.418Z,2.70
2019-05-03T15:58:26.528Z,2.50
2019-05-03T16:00:57.030Z,3.00
2019-05-03T16:03:27.160Z,2.70
2019-05-03T16:05:57.002Z,2.20
2019-05-03T16:08:26.935Z,2.37
2019-05-03T16:10:56.905Z,2.77
2019-05-03T16:13:26.829Z,2.70
2019-05-03T16:15:57.334Z,4.60
2019-05-03T16:18:27.406Z,6.07
2019-05-03T16:20:57.241Z,7.70
2019-05-03T16:23:27.174Z,4.43
2019-05-03T16:25:57.080Z,5.47
2019-05-03T16:28:38.282Z,3.43
2019-05-03T16:31:11.362Z,4.00
2019-05-03T16:33:41.490Z,3.83
2019-05-03T16:36:11.462Z,3.90
2019-05-03T16:38:41.423Z,3.70
2019-05-03T16:41:11.324Z,4.87
2019-05-03T16:43:41.260Z,8.77
2019-05-03T16:46:14.561Z,5.87
2019-05-03T16:48:45.670Z,6.17
2019-05-03T16:51:17.300Z,3.77
2019-05-03T16:53:47.900Z,3.40
2019-05-03T16:56:17.928Z,3.00
2019-05-03T16:58:47.789Z,3.13
2019-05-03T17:01:18.321Z,2.70
2019-05-03T17:03:56.745Z,2.73
2019-05-03T17:06:40.213Z,2.93
2019-05-03T17:09:24.854Z,3.50
2019-05-03T17:12:06.702Z,3.20
2019-05-03T17:14:36.557Z,3.40
2019-05-03T17:17:07.285Z,3.10
2019-05-03T17:19:38.537Z,4.30
2019-05-03T17:22:08.387Z,4.60
2019-05-03T17:24:38.393Z,5.00
2019-05-03T17:27:08.459Z,7.33
2019-05-03T17:29:38.398Z,3.20
2019-05-03T17:32:11.056Z,3.70
2019-05-03T17:34:41.306Z,7.53
2019-05-03T17:37:12.007Z,5.20
2019-05-03T17:39:49.342Z,5.43
2019-05-03T17:42:25.313Z,4.13
2019-05-03T17:44:56.058Z,3.80
2019-05-03T17:47:26.757Z,2.80
2019-05-03T17:49:56.885Z,2.23
2019-05-03T17:52:51.729Z,2.30
2019-05-03T17:55:55.053Z,2.60
2019-05-03T17:58:44.469Z,2.80
2019-05-03T18:01:39.990Z,3.40
2019-05-03T18:04:17.764Z,3.70
2019-05-03T18:07:06.207Z,3.30
2019-05-03T18:09:37.952Z,2.87
2019-05-03T18:12:09.018Z,6.80
2019-05-03T18:14:39.487Z,8.73
2019-05-03T18:17:09.614Z,9.70
2019-05-03T18:19:39.576Z,9.40
2019-05-03T18:22:09.510Z,5.40
2019-05-03T18:24:40.037Z,3.50
2019-05-03T18:27:10.064Z,3.93
2019-05-03T18:29:40.005Z,4.07
2019-05-03T18:32:09.921Z,3.23
2019-05-03T18:34:41.515Z,3.00
2019-05-03T18:37:12.205Z,3.60
2019-05-03T18:39:42.361Z,2.77
2019-05-03T18:42:15.925Z,3.70
2019-05-03T18:44:50.122Z,3.20
2019-05-03T18:47:22.748Z,3.00
2019-05-03T18:49:54.864Z,3.90
2019-05-03T18:52:25.682Z,4.03
2019-05-03T18:54:56.321Z,4.13
2019-05-03T18:57:26.355Z,3.90
2019-05-03T18:59:56.216Z,3.47
2019-05-03T19:02:26.712Z,6.20
2019-05-03T19:04:56.799Z,13.83
2019-05-03T19:07:39.073Z,17.37
2019-05-03T19:10:24.691Z,13.00
2019-05-03T19:13:01.594Z,11.60
2019-05-03T19:15:34.627Z,5.60
2019-05-03T19:18:08.373Z,5.57
2019-05-03T19:20:38.325Z,5.60
2019-05-03T19:23:08.851Z,4.60
2019-05-03T19:25:47.026Z,4.93
2019-05-03T19:28:11.209Z,5.17
2019-05-03T19:30:44.284Z,5.03
2019-05-03T19:33:14.498Z,4.50
2019-05-03T19:35:45.257Z,4.90
2019-05-03T19:38:15.286Z,5.43
2019-05-03T19:40:45.407Z,3.13
2019-05-03T19:43:15.351Z,3.60
2019-05-03T19:45:45.275Z,4.10
2019-05-03T19:48:16.938Z,3.83
2019-05-03T19:50:47.289Z,3.53
2019-05-03T19:53:39.245Z,3.37
2019-05-03T19:56:09.672Z,3.53
2019-05-03T19:58:39.791Z,4.07
2019-05-03T20:01:40.630Z,3.80
2019-05-03T20:04:30.240Z,3.57
2019-05-03T20:07:07.770Z,3.53
2019-05-03T20:09:37.905Z,3.20
2019-05-03T20:12:07.776Z,3.40
2019-05-03T20:14:37.702Z,11.73
2019-05-03T20:17:07.582Z,5.93
2019-05-03T20:19:38.093Z,5.17
2019-05-03T20:22:08.247Z,3.57
2019-05-03T20:24:38.162Z,4.87
2019-05-03T20:27:08.106Z,4.80
2019-05-03T20:29:38.019Z,4.40
2019-05-03T20:32:08.549Z,4.13
2019-05-03T20:34:38.587Z,3.80
2019-05-03T20:37:08.517Z,3.67
2019-05-03T20:39:38.361Z,3.40
2019-05-03T20:42:08.208Z,3.70
2019-05-03T20:44:47.849Z,3.70
2019-05-03T20:47:34.874Z,4.83
2019-05-03T20:50:16.228Z,3.80
2019-05-03T20:52:47.103Z,3.73
2019-05-03T20:55:17.194Z,3.70
2019-05-03T20:57:47.053Z,3.37
2019-05-03T21:00:20.390Z,4.10
2019-05-03T21:02:54.097Z,4.77
2019-05-03T21:05:29.639Z,4.23
2019-05-03T21:07:55.092Z,4.20
2019-05-03T21:10:31.583Z,5.27
2019-05-03T21:13:01.187Z,5.20
2019-05-03T21:15:37.566Z,4.57
2019-05-03T21:18:25.309Z,3.67
2019-05-03T21:21:00.189Z,4.10
2019-05-03T21:23:34.453Z,3.83
2019-05-03T21:26:13.191Z,3.53
2019-05-03T21:28:40.623Z,3.80
2019-05-03T21:31:11.128Z,3.80
2019-05-03T21:33:44.519Z,3.80
2019-05-03T21:36:15.276Z,4.13
2019-05-03T21:38:45.889Z,4.80
2019-05-03T21:41:15.948Z,4.30
2019-05-03T21:43:45.888Z,3.87
2019-05-03T21:46:21.642Z,4.20
2019-05-03T21:49:16.298Z,4.67
2019-05-03T21:51:46.234Z,4.27
2019-05-03T21:54:16.137Z,4.20
2019-05-03T21:56:46.006Z,3.90
2019-05-03T21:59:16.492Z,3.90
2019-05-03T22:01:48.738Z,3.90
2019-05-03T22:04:19.368Z,3.50
2019-05-03T22:06:50.089Z,4.50
2019-05-03T22:09:20.209Z,4.23
2019-05-03T22:11:52.187Z,4.70
2019-05-03T22:14:30.064Z,4.70
2019-05-03T22:17:31.631Z,4.87
2019-05-03T22:20:27.333Z,4.07
2019-05-03T22:23:04.531Z,3.90
2019-05-03T22:25:35.176Z,3.97
2019-05-03T22:28:07.176Z,3.93
2019-05-03T22:30:37.864Z,3.90
2019-05-03T22:33:08.949Z,3.57
2019-05-03T22:35:38.788Z,3.83
2019-05-03T22:38:09.305Z,4.40
2019-05-03T22:40:40.963Z,4.00
2019-05-03T22:43:11.008Z,5.43
2019-05-03T22:45:40.920Z,5.20
2019-05-03T22:48:11.357Z,5.17
2019-05-03T22:50:41.464Z,5.80
2019-05-03T22:53:11.826Z,5.67
2019-05-03T22:55:42.316Z,5.60
2019-05-03T22:58:12.946Z,4.70
2019-05-03T23:00:44.504Z,5.00
2019-05-03T23:03:15.233Z,5.53
2019-05-03T23:05:45.597Z,4.47
2019-05-03T23:08:15.572Z,4.77
2019-05-03T23:10:45.408Z,4.03
2019-05-03T23:13:15.460Z,4.00
2019-05-03T23:15:45.375Z,4.47
2019-05-03T23:18:15.846Z,4.50
2019-05-03T23:20:56.323Z,5.37
2019-05-03T23:23:45.439Z,4.33
2019-05-03T23:26:15.988Z,5.13
2019-05-03T23:28:46.125Z,4.80
2019-05-03T23:31:16.042Z,5.43
2019-05-03T23:33:45.969Z,5.47
2019-05-03T23:36:15.813Z,5.10
2019-05-03T23:38:46.248Z,4.50
2019-05-03T23:41:16.272Z,4.60
2019-05-03T23:43:46.132Z,5.40
2019-05-03T23:46:17.601Z,4.77
2019-05-03T23:48:48.107Z,4.80
2019-05-03T23:51:35.626Z,4.53
2019-05-03T23:54:06.448Z,5.37
2019-05-03T23:56:36.476Z,4.93
2019-05-03T23:59:06.332Z,5.13
